Stinson Lake, New Hampshire
Current Conditions -  °F | °C
As of 11:55 AM on Monday 22 Dec 2014 (Local Time) from K1P1 Reporting Station
Overcast Overcast  
Wind Chill: 33°   Ceiling: 4300
Heat Index: 33°   Visibility: 10mi
Dew Point: 29°   Wind: 0mph
Humidity: 86%   Direction: NA
Pressure: 30.35"   Gusts: NA
Location:  43.86°N, 71.81°W
Report Text: K1P1 221655Z AUTO 00000KT 10SM OVC043 01/M01 A3035 RMK AO2 T00061015
Loading
Personal Weather Stations






























Interactive Weather Map New forecast layout! Learn more

10-Day Weather Forecast

Advertisements
Track Severe Weather on mobile